createdAt,value
2023-02-17T00:00:09.106Z,7.07
2023-02-17T00:02:37.656Z,7.00
2023-02-17T00:05:06.892Z,7.10
2023-02-17T00:07:36.380Z,6.70
2023-02-17T00:10:06.859Z,7.27
2023-02-17T00:12:35.293Z,7.20
2023-02-17T00:15:03.713Z,6.73
2023-02-17T00:17:32.040Z,6.07
2023-02-17T00:20:00.304Z,6.17
2023-02-17T00:22:29.010Z,6.40
2023-02-17T00:24:57.346Z,4.90
2023-02-17T00:27:27.056Z,5.63
2023-02-17T00:29:55.348Z,4.80
2023-02-17T00:32:23.693Z,5.57
2023-02-17T00:34:53.328Z,5.43
2023-02-17T00:37:21.584Z,4.87
2023-02-17T00:39:49.960Z,5.87
2023-02-17T00:42:20.568Z,5.00
2023-02-17T00:44:50.221Z,5.20
2023-02-17T00:47:18.517Z,5.20
2023-02-17T00:49:48.895Z,5.20
2023-02-17T00:52:17.144Z,5.57
2023-02-17T00:54:45.392Z,5.60
2023-02-17T00:57:13.649Z,5.83
2023-02-17T00:59:42.130Z,5.23
2023-02-17T01:02:12.178Z,5.93
2023-02-17T01:04:40.524Z,5.23
2023-02-17T01:07:08.852Z,5.30
2023-02-17T01:09:37.181Z,6.00
2023-02-17T01:12:05.566Z,5.10
2023-02-17T01:14:33.875Z,5.33
2023-02-17T01:17:02.133Z,5.50
2023-02-17T01:19:31.808Z,4.93
2023-02-17T01:22:00.143Z,5.30
2023-02-17T01:24:28.570Z,4.93
2023-02-17T01:26:57.275Z,5.10
2023-02-17T01:29:28.936Z,5.10
2023-02-17T01:31:57.352Z,4.70
2023-02-17T01:34:27.779Z,5.17
2023-02-17T01:36:57.522Z,4.83
2023-02-17T01:39:25.814Z,5.13
2023-02-17T01:41:54.122Z,4.70
2023-02-17T01:44:24.337Z,5.13
2023-02-17T01:46:54.049Z,4.37
2023-02-17T01:49:33.569Z,5.10
2023-02-17T01:52:09.522Z,4.53
2023-02-17T01:54:43.843Z,4.50
2023-02-17T01:57:14.420Z,4.80
2023-02-17T01:59:43.027Z,5.37
2023-02-17T02:02:12.128Z,4.53
2023-02-17T02:04:46.258Z,4.70
2023-02-17T02:07:21.205Z,4.37
2023-02-17T02:09:53.551Z,4.43
2023-02-17T02:12:24.537Z,4.57
2023-02-17T02:14:54.312Z,3.80
2023-02-17T02:17:32.809Z,4.30
2023-02-17T02:20:20.312Z,4.87
2023-02-17T02:23:30.065Z,4.70
2023-02-17T02:26:37.083Z,4.77
2023-02-17T02:29:26.301Z,4.83
2023-02-17T02:32:06.477Z,4.57
2023-02-17T02:34:40.169Z,4.40
2023-02-17T02:37:14.089Z,4.27
2023-02-17T02:39:47.571Z,3.77
2023-02-17T02:42:19.504Z,3.63
2023-02-17T02:44:48.517Z,3.97
2023-02-17T02:47:48.306Z,4.07
2023-02-17T02:50:27.893Z,4.40
2023-02-17T02:53:19.679Z,3.77
2023-02-17T02:55:54.552Z,3.70
2023-02-17T02:58:29.040Z,3.20
2023-02-17T03:01:01.985Z,3.37
2023-02-17T03:03:41.159Z,3.30
2023-02-17T03:06:17.934Z,3.37
2023-02-17T03:08:51.496Z,3.60
2023-02-17T03:11:32.348Z,2.93
2023-02-17T03:14:03.579Z,2.73
2023-02-17T03:16:33.854Z,3.00
2023-02-17T03:19:02.210Z,3.40
2023-02-17T03:21:38.825Z,2.67
2023-02-17T03:24:08.351Z,2.97
2023-02-17T03:26:36.699Z,2.30
2023-02-17T03:29:05.287Z,2.50
2023-02-17T03:31:33.938Z,2.93
2023-02-17T03:34:02.297Z,2.80
2023-02-17T03:36:31.900Z,2.87
2023-02-17T03:39:00.120Z,2.30
2023-02-17T03:41:28.338Z,2.60
2023-02-17T03:43:56.825Z,2.83
2023-02-17T03:46:25.274Z,2.60
2023-02-17T03:48:53.587Z,2.90
2023-02-17T03:51:24.214Z,2.90
2023-02-17T03:53:53.989Z,3.43
2023-02-17T03:56:22.270Z,3.10
2023-02-17T03:58:50.519Z,3.40
2023-02-17T04:01:18.932Z,3.73
2023-02-17T04:03:47.279Z,2.87
2023-02-17T04:06:15.546Z,2.80
2023-02-17T04:08:43.768Z,3.47
2023-02-17T04:11:13.340Z,3.43
2023-02-17T04:13:42.005Z,3.50
2023-02-17T04:16:11.913Z,3.23
2023-02-17T04:18:40.446Z,3.17
2023-02-17T04:21:09.419Z,3.20
2023-02-17T04:23:38.645Z,3.00
2023-02-17T04:26:08.665Z,3.60
2023-02-17T04:28:39.316Z,3.40
2023-02-17T04:31:08.355Z,3.73
2023-02-17T04:33:38.009Z,3.10
2023-02-17T04:36:07.385Z,4.00
2023-02-17T04:38:36.430Z,3.47
2023-02-17T04:41:06.253Z,4.37
2023-02-17T04:43:34.850Z,3.57
2023-02-17T04:46:05.042Z,3.90
2023-02-17T04:48:33.708Z,3.70
2023-02-17T04:51:01.987Z,3.67
2023-02-17T04:53:30.216Z,4.03
2023-02-17T04:55:58.476Z,4.83
2023-02-17T04:58:27.050Z,3.63
2023-02-17T05:00:55.276Z,4.20
2023-02-17T05:03:24.910Z,5.13
2023-02-17T05:05:53.116Z,4.53
2023-02-17T05:08:21.396Z,4.83
2023-02-17T05:10:51.408Z,4.73
2023-02-17T05:13:20.039Z,4.57
2023-02-17T05:15:48.787Z,4.50
2023-02-17T05:18:17.140Z,4.10
2023-02-17T05:20:46.734Z,4.20
2023-02-17T05:23:15.018Z,4.33
2023-02-17T05:25:43.299Z,4.43
2023-02-17T05:28:11.536Z,4.63
2023-02-17T05:30:39.972Z,4.57
2023-02-17T05:33:08.247Z,4.20
2023-02-17T05:35:37.269Z,4.90
2023-02-17T05:38:07.051Z,4.20
2023-02-17T05:40:35.374Z,4.77
2023-02-17T05:43:03.574Z,4.37
2023-02-17T05:45:31.784Z,4.53
2023-02-17T05:48:00.013Z,4.93
2023-02-17T05:50:28.382Z,5.10
2023-02-17T05:53:03.979Z,5.30
2023-02-17T05:55:33.876Z,5.20
2023-02-17T05:58:02.274Z,5.27
2023-02-17T06:00:30.639Z,5.60
2023-02-17T06:02:58.897Z,5.50
2023-02-17T06:05:27.172Z,5.13
2023-02-17T06:07:55.390Z,5.70
2023-02-17T06:10:23.678Z,5.30
2023-02-17T06:12:53.296Z,4.67
2023-02-17T06:15:21.574Z,5.87
2023-02-17T06:17:49.778Z,5.27
2023-02-17T06:20:18.483Z,4.77
2023-02-17T06:22:46.677Z,5.13
2023-02-17T06:25:14.957Z,5.00
2023-02-17T06:27:44.188Z,5.23
2023-02-17T06:30:15.511Z,5.20
2023-02-17T06:32:43.747Z,5.10
2023-02-17T06:35:12.048Z,5.27
2023-02-17T06:37:40.313Z,5.00
2023-02-17T06:40:09.399Z,5.23
2023-02-17T06:42:38.309Z,4.87
2023-02-17T06:45:07.295Z,5.07
2023-02-17T06:47:37.203Z,4.90
2023-02-17T06:50:06.085Z,4.90
2023-02-17T06:52:34.413Z,4.30
2023-02-17T06:55:02.689Z,4.67
2023-02-17T06:57:30.903Z,4.83
2023-02-17T06:59:59.169Z,4.87
2023-02-17T07:02:27.451Z,4.70
2023-02-17T07:05:00.164Z,4.67
2023-02-17T07:07:28.623Z,4.27
2023-02-17T07:09:56.865Z,4.47
2023-02-17T07:12:25.108Z,5.10
2023-02-17T07:14:53.343Z,4.77
2023-02-17T07:17:22.415Z,4.30
2023-02-17T07:19:50.721Z,4.03
2023-02-17T07:22:20.371Z,4.70
2023-02-17T07:24:48.633Z,4.67
2023-02-17T07:27:16.955Z,4.23
2023-02-17T07:29:45.331Z,3.97
2023-02-17T07:32:13.625Z,4.37
2023-02-17T07:34:41.872Z,4.10
2023-02-17T07:37:10.098Z,3.90
2023-02-17T07:39:42.754Z,3.47
2023-02-17T07:42:17.130Z,3.83
2023-02-17T07:44:51.318Z,3.97
2023-02-17T07:47:19.779Z,3.83
2023-02-17T07:49:48.010Z,3.70
2023-02-17T07:52:18.912Z,3.50
2023-02-17T07:54:51.275Z,3.17
2023-02-17T07:57:19.543Z,3.83
2023-02-17T07:59:48.320Z,3.50
2023-02-17T08:02:16.974Z,3.70
2023-02-17T08:05:05.679Z,3.43
2023-02-17T08:07:34.009Z,3.10
2023-02-17T08:10:20.943Z,3.40
2023-02-17T08:13:06.625Z,2.90
2023-02-17T08:15:35.643Z,2.90
2023-02-17T08:18:11.923Z,2.70
2023-02-17T08:20:40.213Z,3.17
2023-02-17T08:23:10.871Z,2.53
2023-02-17T08:25:43.292Z,2.43
2023-02-17T08:28:13.370Z,2.80
2023-02-17T08:30:44.659Z,2.37
2023-02-17T08:33:18.765Z,2.30
2023-02-17T08:35:52.283Z,2.37
2023-02-17T08:38:20.734Z,1.70
2023-02-17T08:40:50.389Z,2.00
2023-02-17T08:43:18.623Z,1.90
2023-02-17T08:45:46.965Z,2.10
2023-02-17T08:48:17.523Z,2.00
2023-02-17T08:50:48.567Z,1.80
2023-02-17T08:53:16.914Z,1.73
2023-02-17T08:55:49.460Z,1.90
2023-02-17T08:58:24.787Z,1.80
2023-02-17T09:00:55.408Z,1.60
2023-02-17T09:03:26.860Z,1.73
2023-02-17T09:05:55.952Z,2.30
2023-02-17T09:08:31.996Z,2.10
2023-02-17T09:11:00.647Z,2.17
2023-02-17T09:13:32.902Z,2.10
2023-02-17T09:16:01.265Z,2.10
2023-02-17T09:18:29.931Z,1.87
2023-02-17T09:21:01.020Z,1.97
2023-02-17T09:23:35.151Z,1.97
2023-02-17T09:26:20.264Z,1.77
2023-02-17T09:29:08.386Z,1.97
2023-02-17T09:31:37.984Z,2.10
2023-02-17T09:34:09.324Z,1.83
2023-02-17T09:36:45.767Z,1.90
2023-02-17T09:39:14.965Z,2.00
2023-02-17T09:41:47.266Z,1.90
2023-02-17T09:44:23.486Z,1.97
2023-02-17T09:47:03.673Z,2.60
2023-02-17T09:49:38.539Z,2.10
2023-02-17T09:52:13.336Z,2.00
2023-02-17T09:54:50.797Z,2.00
2023-02-17T09:57:22.886Z,2.40
2023-02-17T09:59:57.431Z,2.20
2023-02-17T10:02:33.458Z,2.33
2023-02-17T10:05:06.246Z,2.37
2023-02-17T10:07:39.998Z,2.50
2023-02-17T10:10:12.657Z,2.30
2023-02-17T10:12:47.198Z,2.07
2023-02-17T10:15:20.836Z,2.17
2023-02-17T10:17:54.761Z,2.47
2023-02-17T10:20:26.947Z,2.13
2023-02-17T10:23:01.193Z,2.30
2023-02-17T10:25:48.309Z,2.40
2023-02-17T10:28:22.809Z,1.90
2023-02-17T10:30:57.655Z,2.10
2023-02-17T10:33:32.584Z,1.80
2023-02-17T10:36:12.236Z,1.80
2023-02-17T10:38:51.068Z,1.70
2023-02-17T10:41:23.995Z,1.60
2023-02-17T10:43:52.759Z,1.40
2023-02-17T10:46:29.865Z,1.60
2023-02-17T10:48:59.828Z,1.50
2023-02-17T10:51:29.595Z,1.53
2023-02-17T10:54:02.402Z,1.50
2023-02-17T10:56:36.703Z,1.50
2023-02-17T10:59:09.082Z,1.60
2023-02-17T11:01:38.915Z,1.27
2023-02-17T11:04:10.635Z,2.00
2023-02-17T11:06:45.415Z,1.50
2023-02-17T11:09:23.382Z,1.70
2023-02-17T11:11:58.661Z,1.50
2023-02-17T11:14:29.779Z,1.97
2023-02-17T11:17:01.681Z,1.87
2023-02-17T11:19:34.012Z,1.67
2023-02-17T11:22:04.550Z,1.60
2023-02-17T11:24:43.630Z,1.80
2023-02-17T11:27:13.461Z,1.60
2023-02-17T11:29:51.753Z,1.87
2023-02-17T11:32:32.480Z,1.80
2023-02-17T11:35:04.892Z,1.97
2023-02-17T11:37:34.778Z,2.03
2023-02-17T11:40:26.347Z,2.30
2023-02-17T11:42:58.810Z,2.10
2023-02-17T11:46:14.481Z,2.37
2023-02-17T11:49:08.883Z,2.30
2023-02-17T11:51:52.146Z,1.97
2023-02-17T11:54:59.140Z,2.00
2023-02-17T11:57:37.766Z,2.30
2023-02-17T12:00:16.262Z,1.90
2023-02-17T12:03:35.776Z,2.33
2023-02-17T12:06:14.524Z,1.90
2023-02-17T12:09:04.999Z,2.07
2023-02-17T12:11:59.244Z,1.90
2023-02-17T12:14:45.426Z,2.17
2023-02-17T12:17:31.281Z,2.00
2023-02-17T12:20:40.704Z,2.20
2023-02-17T12:23:35.324Z,1.73
2023-02-17T12:26:12.645Z,2.10
2023-02-17T12:28:56.829Z,2.17
2023-02-17T12:31:48.450Z,1.80
2023-02-17T12:34:25.675Z,1.77
2023-02-17T12:37:19.103Z,1.77
2023-02-17T12:39:53.341Z,1.90
2023-02-17T12:42:25.433Z,1.53
2023-02-17T12:44:57.920Z,1.63
2023-02-17T12:47:33.275Z,1.70
2023-02-17T12:50:07.747Z,1.80
2023-02-17T12:52:41.664Z,1.90
2023-02-17T12:55:20.912Z,1.90
2023-02-17T12:58:17.073Z,1.83
2023-02-17T13:00:50.481Z,1.60
2023-02-17T13:03:19.201Z,2.17
2023-02-17T13:05:53.217Z,1.90
2023-02-17T13:08:26.606Z,1.80
2023-02-17T13:11:13.378Z,1.93
2023-02-17T13:13:57.471Z,2.30
2023-02-17T13:16:25.884Z,1.93
2023-02-17T13:18:54.134Z,2.10
2023-02-17T13:21:34.504Z,2.00
2023-02-17T13:24:04.857Z,2.30
2023-02-17T13:26:36.587Z,2.47
2023-02-17T13:29:21.968Z,2.30
2023-02-17T13:31:53.557Z,1.80
2023-02-17T13:34:33.647Z,2.13
2023-02-17T13:37:05.627Z,1.90
2023-02-17T13:39:38.761Z,2.10
2023-02-17T13:42:34.183Z,1.70
2023-02-17T13:45:03.177Z,1.90
2023-02-17T13:47:37.931Z,1.70
2023-02-17T13:50:07.987Z,2.83
2023-02-17T13:52:38.758Z,2.43
2023-02-17T13:55:33.443Z,2.43
2023-02-17T13:58:12.306Z,2.80
2023-02-17T14:00:45.079Z,2.73
2023-02-17T14:03:21.487Z,2.87
2023-02-17T14:05:51.777Z,2.80
2023-02-17T14:08:33.740Z,3.00
2023-02-17T14:11:08.337Z,3.20
2023-02-17T14:13:39.623Z,3.03
2023-02-17T14:16:09.203Z,3.07
2023-02-17T14:18:42.812Z,2.80
2023-02-17T14:21:13.232Z,3.57
2023-02-17T14:23:43.580Z,2.50
2023-02-17T14:26:27.238Z,1.80
2023-02-17T14:28:58.805Z,2.23
2023-02-17T14:31:27.809Z,1.90
2023-02-17T14:33:59.408Z,1.60
2023-02-17T14:36:34.975Z,1.90
2023-02-17T14:39:05.653Z,1.60
2023-02-17T14:41:33.967Z,1.37
2023-02-17T14:44:03.594Z,1.67
2023-02-17T14:46:31.827Z,1.90
2023-02-17T14:49:07.216Z,2.20
2023-02-17T14:51:37.961Z,2.07
2023-02-17T14:54:15.021Z,1.67
2023-02-17T14:56:47.623Z,2.00
2023-02-17T14:59:17.236Z,1.60
2023-02-17T15:01:45.553Z,1.60
2023-02-17T15:04:13.883Z,1.90
2023-02-17T15:06:44.316Z,1.73
2023-02-17T15:09:14.800Z,1.90
2023-02-17T15:11:45.733Z,1.97
2023-02-17T15:14:15.808Z,2.20
2023-02-17T15:16:46.094Z,1.83
2023-02-17T15:19:17.970Z,2.10
2023-02-17T15:21:49.017Z,2.33
2023-02-17T15:24:20.049Z,2.57
2023-02-17T15:26:48.903Z,2.00
2023-02-17T15:29:19.306Z,2.83
2023-02-17T15:31:50.373Z,2.30
2023-02-17T15:34:20.625Z,2.60
2023-02-17T15:36:49.043Z,2.87
2023-02-17T15:39:19.333Z,2.67
2023-02-17T15:41:48.779Z,2.40
2023-02-17T15:44:18.774Z,3.03
2023-02-17T15:46:50.907Z,3.50
2023-02-17T15:49:19.222Z,2.67
2023-02-17T15:51:47.491Z,2.57
2023-02-17T15:54:19.182Z,2.97
2023-02-17T15:56:50.304Z,3.00
2023-02-17T15:59:22.146Z,2.60
2023-02-17T16:01:51.899Z,3.10
2023-02-17T16:04:20.244Z,2.77
2023-02-17T16:06:48.589Z,2.70
2023-02-17T16:09:16.824Z,3.07
2023-02-17T16:11:50.288Z,2.60
2023-02-17T16:14:40.351Z,2.63
2023-02-17T16:17:30.462Z,2.47
2023-02-17T16:20:05.047Z,2.80
2023-02-17T16:22:34.058Z,2.93
2023-02-17T16:25:02.519Z,3.97
2023-02-17T16:27:30.972Z,3.43
2023-02-17T16:30:03.523Z,2.80
2023-02-17T16:32:37.691Z,3.27
2023-02-17T16:35:27.419Z,2.47
2023-02-17T16:37:57.942Z,3.10
2023-02-17T16:40:29.552Z,3.30
2023-02-17T16:42:58.268Z,3.20
2023-02-17T16:45:28.772Z,3.03
2023-02-17T16:48:00.616Z,3.07
2023-02-17T16:50:32.188Z,3.37
2023-02-17T16:53:08.989Z,3.47
2023-02-17T16:55:38.167Z,3.37
2023-02-17T16:58:14.937Z,3.13
2023-02-17T17:00:43.424Z,3.33
2023-02-17T17:03:13.260Z,3.93
2023-02-17T17:05:45.499Z,3.97
2023-02-17T17:08:18.284Z,3.20
2023-02-17T17:10:50.446Z,4.03
2023-02-17T17:13:21.650Z,3.50
2023-02-17T17:15:50.249Z,4.07
2023-02-17T17:18:24.114Z,4.30
2023-02-17T17:20:55.115Z,4.70
2023-02-17T17:23:30.604Z,4.30
2023-02-17T17:25:58.923Z,4.27
2023-02-17T17:28:38.742Z,3.97
2023-02-17T17:31:07.003Z,4.10
2023-02-17T17:33:36.794Z,4.20
2023-02-17T17:36:12.990Z,4.20
2023-02-17T17:38:41.858Z,3.90
2023-02-17T17:41:14.015Z,4.20
2023-02-17T17:44:01.418Z,4.83
2023-02-17T17:46:32.037Z,4.37
2023-02-17T17:49:19.489Z,4.20
2023-02-17T17:51:47.742Z,4.10
2023-02-17T17:54:16.074Z,4.13
2023-02-17T17:56:44.934Z,4.20
2023-02-17T17:59:14.358Z,5.40
2023-02-17T18:01:46.055Z,4.90
2023-02-17T18:04:17.331Z,5.07
2023-02-17T18:06:54.938Z,5.30
2023-02-17T18:09:32.285Z,5.53
2023-02-17T18:12:03.471Z,5.40
2023-02-17T18:14:33.014Z,5.00
2023-02-17T18:17:04.473Z,4.73
2023-02-17T18:19:33.400Z,5.23
2023-02-17T18:22:05.260Z,5.13
2023-02-17T18:24:33.877Z,6.40
2023-02-17T18:27:04.591Z,5.20
2023-02-17T18:29:45.072Z,5.37
2023-02-17T18:32:16.194Z,5.30
2023-02-17T18:34:44.451Z,5.03
2023-02-17T18:37:14.118Z,5.30
2023-02-17T18:39:48.085Z,6.40
2023-02-17T18:42:34.068Z,5.70
2023-02-17T18:45:02.453Z,5.80
2023-02-17T18:47:31.729Z,5.60
2023-02-17T18:50:00.013Z,6.47
2023-02-17T18:52:29.639Z,5.83
2023-02-17T18:55:05.876Z,6.37
2023-02-17T18:57:39.906Z,5.87
2023-02-17T19:00:13.071Z,6.17
2023-02-17T19:02:42.228Z,6.20
2023-02-17T19:05:11.605Z,5.67
2023-02-17T19:07:51.319Z,5.60
2023-02-17T19:10:19.923Z,6.87
2023-02-17T19:12:50.324Z,6.03
2023-02-17T19:15:20.964Z,7.10
2023-02-17T19:17:58.582Z,6.73
2023-02-17T19:20:29.830Z,6.93
2023-02-17T19:22:59.764Z,6.63
2023-02-17T19:25:34.085Z,6.83
2023-02-17T19:28:02.323Z,6.97
2023-02-17T19:30:32.754Z,6.97
2023-02-17T19:33:01.006Z,7.17
2023-02-17T19:35:29.246Z,6.90
2023-02-17T19:37:58.861Z,7.70
2023-02-17T19:40:27.109Z,7.23
2023-02-17T19:42:55.691Z,7.20
2023-02-17T19:45:23.912Z,7.60
2023-02-17T19:47:52.195Z,7.90
2023-02-17T19:50:20.698Z,8.03
2023-02-17T19:52:49.030Z,8.37
2023-02-17T19:55:19.867Z,7.53
2023-02-17T19:57:50.634Z,7.63
2023-02-17T20:00:19.556Z,7.47
2023-02-17T20:02:47.907Z,7.37
2023-02-17T20:05:16.471Z,7.50
2023-02-17T20:07:50.289Z,7.83
2023-02-17T20:10:22.773Z,7.27
2023-02-17T20:12:56.719Z,7.57
2023-02-17T20:15:25.027Z,7.97
2023-02-17T20:17:58.641Z,8.87
2023-02-17T20:20:26.944Z,8.03
2023-02-17T20:23:04.003Z,8.53
2023-02-17T20:25:33.700Z,8.60
2023-02-17T20:28:04.171Z,7.87
2023-02-17T20:30:32.418Z,8.00
2023-02-17T20:33:00.739Z,8.73
2023-02-17T20:35:28.959Z,8.80
2023-02-17T20:37:57.494Z,8.93
2023-02-17T20:40:28.063Z,9.50
2023-02-17T20:42:58.150Z,9.33
2023-02-17T20:45:26.520Z,8.73
2023-02-17T20:48:30.336Z,9.57
2023-02-17T20:50:59.422Z,8.83
2023-02-17T20:53:28.021Z,8.77
2023-02-17T20:55:57.037Z,9.47
2023-02-17T20:58:26.654Z,8.97
2023-02-17T21:00:54.954Z,8.87
2023-02-17T21:03:23.218Z,8.93
2023-02-17T21:05:53.807Z,8.27
2023-02-17T21:08:27.325Z,8.27
2023-02-17T21:10:55.573Z,8.73
2023-02-17T21:13:23.909Z,9.37
2023-02-17T21:16:13.744Z,7.93
2023-02-17T21:18:46.997Z,8.50
2023-02-17T21:21:41.869Z,8.27
2023-02-17T21:24:10.243Z,8.27
2023-02-17T21:26:39.599Z,8.20
2023-02-17T21:29:14.019Z,8.90
2023-02-17T21:31:44.038Z,8.50
2023-02-17T21:34:12.421Z,8.10
2023-02-17T21:36:40.665Z,8.77
2023-02-17T21:39:08.894Z,9.10
2023-02-17T21:41:37.302Z,8.60
2023-02-17T21:44:22.826Z,8.97
2023-02-17T21:46:53.759Z,9.17
2023-02-17T21:49:22.020Z,8.30
2023-02-17T21:51:50.913Z,10.77
2023-02-17T21:54:19.169Z,10.90
2023-02-17T21:56:47.715Z,10.00
2023-02-17T21:59:15.981Z,9.40
2023-02-17T22:01:44.213Z,10.73
2023-02-17T22:04:13.832Z,10.20
2023-02-17T22:06:43.044Z,10.10
2023-02-17T22:09:14.553Z,10.00
2023-02-17T22:11:44.128Z,9.63
2023-02-17T22:14:15.621Z,11.20
2023-02-17T22:16:45.097Z,10.17
2023-02-17T22:19:17.709Z,10.90
2023-02-17T22:21:46.733Z,11.30
2023-02-17T22:24:15.576Z,11.40
2023-02-17T22:26:44.077Z,11.93
2023-02-17T22:29:12.394Z,12.93
2023-02-17T22:31:41.231Z,12.20
2023-02-17T22:34:11.001Z,10.97
2023-02-17T22:36:41.235Z,11.50
2023-02-17T22:39:11.884Z,13.13
2023-02-17T22:41:40.849Z,11.97
2023-02-17T22:44:19.640Z,11.53
2023-02-17T22:46:47.877Z,11.43
2023-02-17T22:49:18.791Z,12.33
2023-02-17T22:51:48.459Z,11.87
2023-02-17T22:54:16.723Z,11.67
2023-02-17T22:56:45.109Z,11.27
2023-02-17T22:59:13.393Z,12.57
2023-02-17T23:01:41.620Z,11.77
2023-02-17T23:04:13.838Z,11.00
2023-02-17T23:06:52.130Z,11.27
2023-02-17T23:09:20.890Z,13.03
2023-02-17T23:11:53.941Z,12.07
2023-02-17T23:14:33.781Z,11.80
2023-02-17T23:17:09.940Z,12.77
2023-02-17T23:19:40.888Z,12.73
2023-02-17T23:22:15.899Z,12.87
2023-02-17T23:24:44.656Z,12.43
2023-02-17T23:27:33.420Z,13.67
2023-02-17T23:30:01.675Z,13.27
2023-02-17T23:32:29.967Z,12.73
2023-02-17T23:34:58.813Z,12.43
2023-02-17T23:37:28.507Z,12.97
2023-02-17T23:39:59.906Z,12.33
2023-02-17T23:42:28.261Z,12.60
2023-02-17T23:44:56.493Z,13.23
2023-02-17T23:47:24.913Z,13.00
2023-02-17T23:49:53.554Z,13.37
2023-02-17T23:52:21.835Z,12.30
2023-02-17T23:54:54.505Z,11.73
2023-02-17T23:57:22.814Z,13.63
2023-02-17T23:59:51.051Z,13.43
